createdAt,value
2022-09-28T00:00:53.938Z,13.60
2022-09-28T00:03:21.096Z,13.60
2022-09-28T00:05:47.825Z,13.60
2022-09-28T00:08:14.603Z,13.50
2022-09-28T00:10:43.364Z,13.50
2022-09-28T00:13:10.077Z,13.40
2022-09-28T00:15:36.858Z,13.40
2022-09-28T00:18:03.640Z,13.30
2022-09-28T00:20:30.424Z,13.30
2022-09-28T00:22:57.208Z,13.30
2022-09-28T00:25:24.971Z,13.30
2022-09-28T00:27:51.732Z,13.30
2022-09-28T00:30:18.525Z,13.30
2022-09-28T00:32:45.305Z,13.30
2022-09-28T00:35:12.129Z,13.30
2022-09-28T00:37:39.272Z,13.40
2022-09-28T00:40:06.420Z,13.30
2022-09-28T00:42:33.193Z,13.30
2022-09-28T00:44:59.937Z,13.20
2022-09-28T00:47:41.712Z,13.20
2022-09-28T00:50:11.519Z,13.20
2022-09-28T00:52:38.241Z,13.10
2022-09-28T00:55:06.892Z,13.10
2022-09-28T00:57:34.341Z,13.00
2022-09-28T01:00:01.755Z,12.90
2022-09-28T01:02:28.677Z,13.00
2022-09-28T01:04:56.991Z,13.10
2022-09-28T01:07:23.840Z,13.10
2022-09-28T01:09:51.492Z,13.00
2022-09-28T01:12:18.224Z,12.90
2022-09-28T01:14:45.370Z,12.90
2022-09-28T01:17:12.131Z,13.00
2022-09-28T01:19:44.515Z,13.10
2022-09-28T01:22:12.077Z,13.10
2022-09-28T01:24:45.770Z,13.00
2022-09-28T01:27:15.487Z,13.00
2022-09-28T01:29:53.673Z,12.90
2022-09-28T01:32:29.263Z,12.90
2022-09-28T01:35:00.268Z,13.00
2022-09-28T01:37:33.878Z,12.90
2022-09-28T01:40:02.751Z,12.90
2022-09-28T01:42:32.506Z,12.80
2022-09-28T01:45:03.860Z,12.70
2022-09-28T01:47:33.238Z,12.70
2022-09-28T01:50:04.338Z,12.60
2022-09-28T01:52:54.479Z,12.80
2022-09-28T01:55:26.964Z,12.70
2022-09-28T01:57:53.750Z,12.80
2022-09-28T02:00:21.260Z,12.80
2022-09-28T02:02:53.878Z,12.70
2022-09-28T02:05:27.137Z,12.70
2022-09-28T02:08:02.526Z,12.60
2022-09-28T02:10:32.590Z,12.70
2022-09-28T02:13:02.551Z,12.70
2022-09-28T02:15:49.895Z,12.50
2022-09-28T02:18:17.421Z,12.50
2022-09-28T02:20:48.437Z,12.50
2022-09-28T02:23:15.348Z,12.40
2022-09-28T02:25:49.767Z,12.40
2022-09-28T02:28:18.607Z,12.40
2022-09-28T02:30:45.641Z,12.40
2022-09-28T02:33:16.752Z,12.40
2022-09-28T02:35:44.004Z,12.30
2022-09-28T02:38:11.767Z,12.30
2022-09-28T02:40:39.070Z,12.20
2022-09-28T02:43:32.377Z,12.20
2022-09-28T02:46:09.840Z,12.20
2022-09-28T02:48:52.222Z,12.20
2022-09-28T02:51:30.258Z,12.20
2022-09-28T02:54:16.660Z,12.20
2022-09-28T02:57:08.297Z,12.10
2022-09-28T02:59:53.310Z,12.10
2022-09-28T03:02:25.142Z,12.20
2022-09-28T03:04:52.051Z,12.20
2022-09-28T03:07:55.039Z,12.20
2022-09-28T03:10:33.816Z,12.20
2022-09-28T03:13:00.676Z,12.20
2022-09-28T03:15:29.399Z,12.30
2022-09-28T03:17:57.441Z,12.30
2022-09-28T03:20:24.842Z,12.30
2022-09-28T03:23:12.367Z,12.20
2022-09-28T03:25:39.950Z,12.20
2022-09-28T03:28:06.752Z,12.40
2022-09-28T03:30:39.408Z,12.30
2022-09-28T03:33:07.029Z,12.30
2022-09-28T03:35:33.907Z,12.20
2022-09-28T03:38:00.645Z,12.20
2022-09-28T03:40:29.989Z,12.30
2022-09-28T03:42:56.769Z,12.20
2022-09-28T03:45:23.515Z,12.20
2022-09-28T03:47:51.884Z,12.20
2022-09-28T03:50:19.045Z,12.20
2022-09-28T03:52:45.890Z,12.20
2022-09-28T03:55:12.756Z,12.30
2022-09-28T03:57:39.516Z,12.30
2022-09-28T04:00:07.034Z,12.40
2022-09-28T04:02:40.457Z,12.30
2022-09-28T04:05:07.671Z,12.30
2022-09-28T04:07:34.539Z,12.40
2022-09-28T04:10:01.316Z,12.40
2022-09-28T04:12:28.204Z,12.50
2022-09-28T04:14:55.025Z,12.60
2022-09-28T04:17:21.808Z,12.70
2022-09-28T04:19:48.953Z,12.60
2022-09-28T04:22:33.912Z,12.60
2022-09-28T04:25:00.705Z,12.50
2022-09-28T04:27:46.287Z,12.40
2022-09-28T04:30:13.550Z,12.30
2022-09-28T04:32:43.577Z,12.20
2022-09-28T04:35:11.734Z,12.20
2022-09-28T04:37:38.483Z,12.20
2022-09-28T04:40:05.470Z,12.40
2022-09-28T04:42:32.673Z,12.40
2022-09-28T04:45:00.967Z,12.30
2022-09-28T04:47:29.505Z,12.30
2022-09-28T04:49:56.241Z,12.30
2022-09-28T04:52:32.017Z,12.30
2022-09-28T04:54:58.836Z,12.30
2022-09-28T04:57:26.241Z,12.40
2022-09-28T04:59:54.596Z,12.60
2022-09-28T05:02:21.514Z,12.40
2022-09-28T05:05:23.525Z,12.50
2022-09-28T05:08:27.650Z,12.60
2022-09-28T05:11:05.667Z,12.60
2022-09-28T05:13:33.118Z,12.60
2022-09-28T05:16:05.042Z,12.60
2022-09-28T05:18:36.339Z,12.50
2022-09-28T05:21:14.478Z,12.70
2022-09-28T05:23:45.665Z,12.80
2022-09-28T05:26:12.472Z,12.90
2022-09-28T05:28:39.211Z,13.10
2022-09-28T05:31:24.514Z,13.10
2022-09-28T05:34:03.788Z,13.10
2022-09-28T05:36:30.948Z,13.10
2022-09-28T05:38:57.884Z,13.10
2022-09-28T05:41:24.685Z,13.10
2022-09-28T05:43:52.337Z,13.10
2022-09-28T05:46:20.183Z,13.20
2022-09-28T05:48:47.921Z,13.30
2022-09-28T05:51:14.760Z,13.40
2022-09-28T05:53:41.526Z,13.40
2022-09-28T05:56:09.193Z,13.50
2022-09-28T05:58:39.238Z,13.70
2022-09-28T06:01:06.306Z,13.70
2022-09-28T06:03:33.179Z,13.70
2022-09-28T06:06:01.152Z,13.80
2022-09-28T06:08:28.578Z,13.90
2022-09-28T06:11:12.570Z,14.30
2022-09-28T06:13:40.052Z,14.20
2022-09-28T06:16:08.103Z,14.20
2022-09-28T06:18:36.438Z,14.20
2022-09-28T06:21:21.718Z,14.20
2022-09-28T06:23:49.540Z,14.10
2022-09-28T06:26:17.961Z,14.10
2022-09-28T06:28:45.642Z,14.20
2022-09-28T06:31:12.551Z,14.20
2022-09-28T06:33:49.338Z,14.40
2022-09-28T06:36:17.785Z,14.40
2022-09-28T06:38:45.174Z,14.40
2022-09-28T06:41:13.655Z,14.50
2022-09-28T06:43:41.692Z,14.60
2022-09-28T06:46:28.722Z,14.80
2022-09-28T06:49:03.395Z,14.90
2022-09-28T06:51:48.832Z,15.00
2022-09-28T06:54:25.610Z,15.10
2022-09-28T06:57:07.505Z,15.20
2022-09-28T06:59:34.731Z,15.30
2022-09-28T07:02:01.799Z,15.50
2022-09-28T07:04:46.864Z,15.50
2022-09-28T07:07:51.825Z,15.50
2022-09-28T07:10:43.560Z,15.60
2022-09-28T07:13:50.849Z,15.70
2022-09-28T07:16:24.258Z,15.90
2022-09-28T07:18:53.982Z,16.00
2022-09-28T07:21:28.991Z,16.20
2022-09-28T07:23:59.977Z,16.30
2022-09-28T07:26:33.181Z,16.50
2022-09-28T07:28:59.992Z,16.70
2022-09-28T07:31:33.737Z,16.90
2022-09-28T07:34:35.992Z,17.10
2022-09-28T07:37:07.128Z,17.40
2022-09-28T07:39:54.060Z,17.60
2022-09-28T07:42:21.078Z,17.70
2022-09-28T07:44:48.527Z,17.80
2022-09-28T07:47:15.298Z,17.90
2022-09-28T07:50:21.218Z,18.10
2022-09-28T07:52:55.915Z,18.30
2022-09-28T07:55:28.633Z,18.30
2022-09-28T07:58:07.834Z,18.20
2022-09-28T08:01:04.417Z,18.20
2022-09-28T08:03:31.679Z,18.10
2022-09-28T08:05:59.535Z,18.30
2022-09-28T08:08:26.990Z,18.40
2022-09-28T08:14:00.379Z,18.30
2022-09-28T08:17:00.031Z,18.50
2022-09-28T08:20:14.333Z,18.60
2022-09-28T08:22:41.943Z,18.80
2022-09-28T08:25:09.284Z,19.20
2022-09-28T08:27:36.575Z,19.30
2022-09-28T08:30:04.640Z,19.40
2022-09-28T08:32:46.162Z,19.50
2022-09-28T08:35:31.525Z,19.40
2022-09-28T08:38:17.670Z,19.50
2022-09-28T08:41:16.648Z,19.50
2022-09-28T08:44:23.809Z,19.70
2022-09-28T08:47:44.466Z,19.70
2022-09-28T08:50:25.998Z,20.10
2022-09-28T08:53:38.731Z,20.30
2022-09-28T08:56:41.155Z,20.40
2022-09-28T08:59:13.749Z,20.40
2022-09-28T09:01:44.410Z,20.80
2022-09-28T09:04:15.684Z,21.20
2022-09-28T09:07:08.925Z,21.20
2022-09-28T09:09:46.049Z,21.00
2022-09-28T09:12:31.291Z,20.70
2022-09-28T09:15:17.399Z,20.80
2022-09-28T09:17:44.255Z,21.00
2022-09-28T09:20:34.000Z,21.20
2022-09-28T09:23:17.914Z,21.40
2022-09-28T09:25:49.543Z,21.60
2022-09-28T09:28:27.738Z,21.80
2022-09-28T09:31:08.405Z,21.90
2022-09-28T09:33:44.055Z,21.90
2022-09-28T09:37:04.180Z,22.10
2022-09-28T09:40:20.705Z,21.90
2022-09-28T09:43:31.554Z,22.10
2022-09-28T09:46:34.351Z,22.20
2022-09-28T09:49:24.841Z,21.80
2022-09-28T09:52:12.821Z,21.90
2022-09-28T09:54:42.403Z,21.80
2022-09-28T09:57:15.802Z,21.60
2022-09-28T09:59:47.477Z,21.40
2022-09-28T10:02:28.863Z,21.20
2022-09-28T10:05:07.670Z,21.20
2022-09-28T10:07:43.718Z,21.60
2022-09-28T10:10:22.891Z,21.50
2022-09-28T10:12:53.189Z,21.70
2022-09-28T10:15:25.249Z,21.80
2022-09-28T10:18:13.389Z,21.60
2022-09-28T10:20:58.868Z,21.60
2022-09-28T10:23:43.458Z,21.70
2022-09-28T10:26:14.625Z,21.40
2022-09-28T10:28:50.629Z,21.40
2022-09-28T10:31:35.925Z,21.70
2022-09-28T10:34:08.591Z,21.80
2022-09-28T10:36:45.161Z,21.80
2022-09-28T10:39:31.117Z,21.90
2022-09-28T10:41:59.886Z,21.80
2022-09-28T10:44:30.703Z,21.50
2022-09-28T10:47:22.180Z,21.60
2022-09-28T10:49:50.565Z,21.80
2022-09-28T10:52:31.592Z,21.60
2022-09-28T10:54:59.472Z,21.60
2022-09-28T10:57:33.752Z,21.70
2022-09-28T11:00:06.935Z,21.90
2022-09-28T11:03:00.734Z,21.80
2022-09-28T11:05:28.092Z,21.80
2022-09-28T11:08:00.075Z,21.90
2022-09-28T11:10:33.762Z,21.80
2022-09-28T11:13:11.319Z,21.80
2022-09-28T11:15:42.820Z,21.60
2022-09-28T11:18:24.030Z,21.40
2022-09-28T11:20:50.988Z,21.50
2022-09-28T11:23:18.027Z,21.80
2022-09-28T11:25:55.475Z,22.20
2022-09-28T11:28:24.082Z,22.50
2022-09-28T11:30:53.004Z,22.20
2022-09-28T11:33:30.047Z,21.70
2022-09-28T11:36:17.014Z,21.80
2022-09-28T11:38:58.580Z,21.70
2022-09-28T11:41:40.968Z,21.90
2022-09-28T11:44:30.860Z,22.20
2022-09-28T11:47:06.523Z,22.50
2022-09-28T11:49:36.276Z,22.90
2022-09-28T11:52:07.919Z,23.20
2022-09-28T11:54:44.347Z,22.90
2022-09-28T11:57:20.921Z,22.60
2022-09-28T11:59:54.502Z,22.40
2022-09-28T12:02:31.975Z,22.40
2022-09-28T12:05:20.005Z,22.50
2022-09-28T12:07:56.901Z,23.00
2022-09-28T12:11:05.934Z,23.10
2022-09-28T12:13:54.016Z,22.80
2022-09-28T12:16:45.693Z,22.80
2022-09-28T12:19:22.719Z,22.80
2022-09-28T12:21:51.236Z,22.40
2022-09-28T12:24:17.959Z,22.00
2022-09-28T12:26:44.684Z,21.80
2022-09-28T12:29:16.373Z,22.10
2022-09-28T12:32:01.693Z,22.60
2022-09-28T12:34:28.447Z,22.70
2022-09-28T12:36:55.204Z,22.60
2022-09-28T12:39:35.535Z,22.90
2022-09-28T12:42:16.788Z,22.80
2022-09-28T12:44:52.948Z,22.70
2022-09-28T12:47:37.648Z,22.60
2022-09-28T12:53:06.603Z,22.30
2022-09-28T12:55:42.369Z,22.20
2022-09-28T12:58:12.097Z,22.10
2022-09-28T13:00:47.936Z,22.10
2022-09-28T13:03:33.643Z,22.10
2022-09-28T13:06:09.654Z,22.00
2022-09-28T13:08:36.381Z,21.80
2022-09-28T13:11:18.220Z,21.90
2022-09-28T13:13:55.775Z,21.90
2022-09-28T13:16:31.660Z,22.10
2022-09-28T13:19:00.355Z,21.80
2022-09-28T13:21:28.221Z,21.80
2022-09-28T13:24:08.675Z,21.70
2022-09-28T13:26:45.702Z,21.90
2022-09-28T13:29:17.961Z,21.80
2022-09-28T13:31:50.505Z,21.60
2022-09-28T13:34:20.598Z,21.60
2022-09-28T13:37:07.398Z,21.50
2022-09-28T13:39:36.701Z,21.40
2022-09-28T13:42:04.629Z,21.60
2022-09-28T13:44:37.854Z,21.70
2022-09-28T13:47:21.097Z,21.50
2022-09-28T13:49:56.287Z,21.70
2022-09-28T13:52:32.084Z,21.70
2022-09-28T13:55:01.913Z,21.90
2022-09-28T13:57:52.390Z,21.90
2022-09-28T14:00:22.118Z,21.90
2022-09-28T14:02:53.944Z,22.00
2022-09-28T14:05:24.999Z,21.80
2022-09-28T14:08:11.465Z,21.70
2022-09-28T14:10:51.617Z,21.80
2022-09-28T14:13:53.897Z,22.00
2022-09-28T14:16:21.746Z,21.90
2022-09-28T14:18:52.332Z,21.70
2022-09-28T14:21:33.331Z,21.70
2022-09-28T14:24:03.478Z,21.80
2022-09-28T14:26:30.170Z,21.70
2022-09-28T14:29:28.971Z,21.70
2022-09-28T14:31:57.136Z,21.80
2022-09-28T14:34:30.205Z,22.00
2022-09-28T14:37:15.315Z,21.90
2022-09-28T14:40:03.937Z,21.90
2022-09-28T14:42:30.744Z,21.90
2022-09-28T14:45:06.442Z,21.80
2022-09-28T14:47:35.246Z,21.60
2022-09-28T14:50:17.518Z,21.50
2022-09-28T14:52:49.264Z,21.50
2022-09-28T14:55:18.195Z,21.60
2022-09-28T14:57:51.184Z,21.50
2022-09-28T15:00:22.553Z,21.50
2022-09-28T15:02:52.528Z,21.60
2022-09-28T15:05:30.548Z,21.60
2022-09-28T15:07:57.935Z,21.50
2022-09-28T15:10:36.804Z,21.40
2022-09-28T15:13:05.350Z,21.10
2022-09-28T15:15:36.700Z,21.00
2022-09-28T15:18:18.529Z,21.00
2022-09-28T15:20:46.479Z,21.10
2022-09-28T15:23:32.010Z,21.00
2022-09-28T15:25:59.039Z,21.00
2022-09-28T15:28:25.989Z,20.90
2022-09-28T15:30:59.356Z,21.00
2022-09-28T15:33:53.965Z,20.90
2022-09-28T15:36:25.453Z,20.90
2022-09-28T15:39:06.121Z,20.80
2022-09-28T15:41:33.607Z,20.90
2022-09-28T15:44:12.350Z,20.80
2022-09-28T15:46:41.194Z,20.80
2022-09-28T15:49:20.405Z,20.90
2022-09-28T15:51:49.942Z,20.70
2022-09-28T15:54:20.590Z,20.80
2022-09-28T15:56:52.404Z,20.80
2022-09-28T15:59:25.441Z,20.90
2022-09-28T16:02:07.486Z,20.70
2022-09-28T16:04:37.368Z,20.40
2022-09-28T16:07:10.100Z,20.20
2022-09-28T16:09:56.518Z,20.20
2022-09-28T16:12:24.062Z,20.10
2022-09-28T16:14:51.836Z,20.10
2022-09-28T16:17:20.515Z,20.20
2022-09-28T16:19:48.635Z,20.20
2022-09-28T16:22:23.495Z,20.20
2022-09-28T16:24:57.592Z,20.10
2022-09-28T16:27:27.427Z,20.00
2022-09-28T16:30:13.021Z,19.90
2022-09-28T16:32:53.498Z,19.80
2022-09-28T16:35:22.863Z,19.60
2022-09-28T16:37:56.394Z,19.40
2022-09-28T16:40:23.245Z,19.40
2022-09-28T16:42:50.197Z,19.20
2022-09-28T16:45:19.767Z,18.90
2022-09-28T16:47:47.270Z,18.90
2022-09-28T16:50:15.186Z,18.70
2022-09-28T16:53:00.565Z,18.60
2022-09-28T16:55:42.872Z,18.50
2022-09-28T16:58:09.833Z,18.50
2022-09-28T17:00:36.710Z,18.40
2022-09-28T17:03:11.045Z,18.30
2022-09-28T17:05:40.182Z,18.30
2022-09-28T17:08:07.043Z,18.30
2022-09-28T17:10:45.112Z,18.30
2022-09-28T17:13:33.257Z,18.30
2022-09-28T17:16:01.676Z,18.30
2022-09-28T17:18:31.736Z,18.30
2022-09-28T17:21:00.052Z,18.30
2022-09-28T17:23:26.782Z,18.20
2022-09-28T17:25:55.579Z,18.20
2022-09-28T17:28:24.291Z,18.20
2022-09-28T17:30:51.100Z,18.10
2022-09-28T17:33:17.864Z,18.10
2022-09-28T17:35:44.883Z,18.00
2022-09-28T17:38:12.515Z,17.90
2022-09-28T17:40:39.484Z,17.90
2022-09-28T17:43:06.315Z,17.80
2022-09-28T17:45:33.661Z,17.80
2022-09-28T17:48:00.771Z,17.80
2022-09-28T17:50:29.648Z,17.80
2022-09-28T17:52:58.057Z,17.80
2022-09-28T17:55:31.551Z,17.80
2022-09-28T17:58:01.732Z,17.80
2022-09-28T18:00:28.642Z,17.80
2022-09-28T18:02:55.742Z,17.80
2022-09-28T18:05:24.607Z,17.80
2022-09-28T18:07:52.043Z,17.80
2022-09-28T18:10:21.353Z,17.80
2022-09-28T18:12:48.565Z,17.80
2022-09-28T18:15:15.688Z,17.70
2022-09-28T18:17:42.415Z,17.80
2022-09-28T18:20:09.915Z,17.70
2022-09-28T18:22:36.859Z,17.60
2022-09-28T18:25:04.423Z,17.60
2022-09-28T18:27:31.331Z,17.60
2022-09-28T18:29:58.056Z,17.50
2022-09-28T18:32:24.812Z,17.60
2022-09-28T18:34:51.573Z,17.50
2022-09-28T18:37:18.665Z,17.60
2022-09-28T18:39:45.576Z,17.60
2022-09-28T18:42:12.680Z,17.60
2022-09-28T18:44:39.394Z,17.50
2022-09-28T18:47:06.136Z,17.50
2022-09-28T18:49:33.818Z,17.50
2022-09-28T18:52:01.457Z,17.40
2022-09-28T18:54:28.257Z,17.50
2022-09-28T18:56:56.230Z,17.50
2022-09-28T18:59:23.458Z,17.50
2022-09-28T19:01:51.170Z,17.40
2022-09-28T19:04:20.034Z,17.40
2022-09-28T19:06:51.618Z,17.20
2022-09-28T19:09:22.037Z,17.10
2022-09-28T19:11:49.235Z,17.10
2022-09-28T19:14:16.579Z,17.00
2022-09-28T19:16:44.217Z,16.90
2022-09-28T19:19:12.600Z,16.90
2022-09-28T19:21:40.242Z,16.90
2022-09-28T19:24:06.956Z,16.90
2022-09-28T19:26:33.759Z,16.90
2022-09-28T19:29:01.088Z,16.80
2022-09-28T19:31:28.544Z,16.70
2022-09-28T19:33:55.971Z,16.70
2022-09-28T19:36:24.268Z,16.60
2022-09-28T19:38:52.195Z,16.50
2022-09-28T19:41:43.297Z,16.40
2022-09-28T19:44:13.094Z,16.30
2022-09-28T19:46:40.577Z,16.10
2022-09-28T19:49:08.625Z,16.00
2022-09-28T19:51:35.388Z,15.90
2022-09-28T19:54:02.609Z,15.70
2022-09-28T19:56:32.044Z,15.70
2022-09-28T19:58:59.637Z,15.70
2022-09-28T20:01:26.907Z,15.70
2022-09-28T20:03:54.443Z,15.60
2022-09-28T20:06:21.512Z,15.60
2022-09-28T20:08:48.482Z,15.50
2022-09-28T20:11:15.229Z,15.50
2022-09-28T20:13:42.022Z,15.60
2022-09-28T20:16:14.236Z,15.50
2022-09-28T20:18:50.035Z,15.60
2022-09-28T20:21:18.699Z,15.60
2022-09-28T20:23:47.379Z,15.50
2022-09-28T20:26:14.941Z,15.40
2022-09-28T20:28:42.872Z,15.30
2022-09-28T20:31:13.864Z,15.20
2022-09-28T20:33:42.639Z,15.30
2022-09-28T20:36:13.928Z,15.40
2022-09-28T20:38:40.916Z,15.50
2022-09-28T20:41:08.556Z,15.40
2022-09-28T20:43:35.309Z,15.20
2022-09-28T20:46:02.762Z,15.00
2022-09-28T20:48:29.706Z,14.90
2022-09-28T20:51:10.067Z,14.90
2022-09-28T20:53:37.561Z,14.90
2022-09-28T20:56:12.537Z,14.80
2022-09-28T20:58:40.385Z,14.70
2022-09-28T21:01:13.667Z,14.80
2022-09-28T21:03:40.455Z,14.80
2022-09-28T21:06:12.036Z,14.80
2022-09-28T21:08:39.039Z,14.90
2022-09-28T21:11:07.227Z,15.00
2022-09-28T21:13:34.009Z,15.00
2022-09-28T21:16:01.867Z,15.10
2022-09-28T21:18:28.818Z,15.00
2022-09-28T21:20:55.694Z,15.00
2022-09-28T21:23:24.866Z,15.00
2022-09-28T21:26:00.746Z,14.90
2022-09-28T21:28:27.453Z,14.90
2022-09-28T21:30:54.328Z,15.10
2022-09-28T21:33:21.113Z,15.20
2022-09-28T21:35:47.810Z,15.20
2022-09-28T21:38:14.529Z,15.20
2022-09-28T21:40:41.927Z,15.20
2022-09-28T21:43:08.763Z,15.20
2022-09-28T21:45:35.526Z,15.10
2022-09-28T21:48:02.222Z,15.10
2022-09-28T21:50:29.019Z,15.10
2022-09-28T21:52:55.814Z,15.10
2022-09-28T21:55:23.449Z,15.00
2022-09-28T21:57:51.024Z,14.90
2022-09-28T22:00:19.715Z,14.90
2022-09-28T22:02:46.630Z,14.90
2022-09-28T22:05:13.460Z,14.90
2022-09-28T22:07:41.337Z,15.10
2022-09-28T22:10:10.513Z,15.10
2022-09-28T22:12:37.253Z,15.10
2022-09-28T22:15:04.475Z,15.00
2022-09-28T22:17:31.228Z,14.90
2022-09-28T22:19:57.984Z,15.10
2022-09-28T22:22:28.933Z,15.10
2022-09-28T22:24:56.193Z,15.20
2022-09-28T22:27:24.015Z,15.10
2022-09-28T22:29:51.148Z,15.10
2022-09-28T22:32:17.947Z,15.10
2022-09-28T22:34:44.697Z,15.20
2022-09-28T22:37:11.441Z,15.10
2022-09-28T22:39:40.966Z,15.20
2022-09-28T22:42:08.223Z,15.20
2022-09-28T22:44:35.961Z,15.30
2022-09-28T22:47:03.524Z,15.30
2022-09-28T22:49:31.544Z,15.30
2022-09-28T22:51:58.440Z,15.40
2022-09-28T22:54:25.168Z,15.10
2022-09-28T22:56:51.898Z,15.10
2022-09-28T22:59:18.869Z,15.20
2022-09-28T23:01:45.775Z,15.20
2022-09-28T23:04:12.659Z,15.10
2022-09-28T23:06:39.350Z,14.90
2022-09-28T23:09:06.152Z,15.00
2022-09-28T23:11:32.915Z,15.00
2022-09-28T23:13:59.735Z,15.10
2022-09-28T23:16:27.028Z,15.20
2022-09-28T23:18:54.776Z,15.10
2022-09-28T23:21:22.773Z,15.00
2022-09-28T23:23:54.144Z,15.20
2022-09-28T23:26:25.296Z,15.10
2022-09-28T23:28:52.766Z,15.10
2022-09-28T23:31:21.605Z,15.10
2022-09-28T23:33:48.711Z,15.10
2022-09-28T23:36:15.996Z,15.10
2022-09-28T23:38:42.987Z,15.10
2022-09-28T23:41:10.120Z,15.00
2022-09-28T23:43:36.867Z,15.00
2022-09-28T23:46:04.082Z,15.00
2022-09-28T23:48:30.986Z,15.10
2022-09-28T23:50:57.713Z,15.10
2022-09-28T23:53:24.448Z,15.00
2022-09-28T23:55:51.224Z,15.00
2022-09-28T23:58:17.974Z,14.90
